Snoqualmie River Flood Gauge Status

Sum of the 3 forks - Station Details,
Latest reading:
Sun06/20 06:15 pm 2873 cfs (-36/hr)
Past 24hr max:
Sun06/20 05:00 am 3014 cfs
Forecasted crests: (published Sun 06/20/21 02:25 pm)
Mon06/21 05:00 am 3018 cfs
Tue06/22 05:00 am 3273 cfs
Fri06/25 05:00 am 2618 cfs
Sat06/26 11:00 am 2788 cfs
Sun06/27 05:00 am 3011 cfs
Mon06/28 05:00 am 3019 cfs
Tue06/29 05:00 am 2762 cfs
Snoqualmie Falls station - Station Details,
flood stage: 13.43 ft
Latest reading:
Sun06/20 05:30 pm 6.35 ft 3288 cfs (-156/hr)
Past 24hr max:
Sun06/20 08:45 am 6.5 ft 3485 cfs
Forecasted crests: (published Sun 06/20/21 02:25 pm)
Mon06/21 11:00 am 6.54 ft 3531 cfs
Tue06/22 11:00 am 6.72 ft 3779 cfs
Fri06/25 11:00 am 6.18 ft 3075 cfs
Sat06/26 11:00 am 6.32 ft 3244 cfs
Sun06/27 11:00 am 6.48 ft 3463 cfs
Mon06/28 05:00 am 6.48 ft 3463 cfs
Carnation station - Station Details,
flood stage: 54.0 ft
Latest reading:
Sun06/20 06:15 pm 47.12 ft 0 cfs (steady)
Past 24hr max:
Sun06/20 02:30 pm 47.16 ft 3860 cfs
Forecasted crests: (published Sun 06/20/21 02:25 pm)
Tue06/22 05:00 pm 47.4 ft 4355 cfs
Fri06/25 05:00 pm 47.06 ft 3649 cfs
Sun06/27 05:00 pm 47.24 ft 4030 cfs
Mon06/28 11:00 am 47.24 ft 4029 cfs

Snoqualmie River flood gauge data supplied by the
National Weather Service Northwest River Forecast Center.

Sign up for Floodzilla alerts.